Overly, North Dakota
Current Conditions -  °F | °C
As of 11:35 PM on Sunday 21 Dec 2014 (Local Time) from KRUG Reporting Station
Haze Haze  
Wind Chill: 20°   Ceiling: 200
Heat Index: 28°   Visibility: 3mi
Dew Point: 28°   Wind: 9mph
Humidity: 100%   Direction: 140°SE
Pressure: 29.48"   Gusts: NA
Location:  48.5496°N, 100.255°W
Report Text: KRUG 220535Z AUTO 14008KT 3SM BR OVC002 M02/M02 A2948 RMK AO2
Loading
Personal Weather Stations






























Interactive Weather Map New forecast layout! Learn more

10-Day Weather Forecast

Advertisements
Track Severe Weather on mobile